sensor_id;sensor_type;location;lat;lon;timestamp;P1;durP1;ratioP1;P2;durP2;ratioP2
16282;SDS011;8249;48.708;9.030;2022-07-18T00:02:02;1.87;;;1.63;;
16282;SDS011;8249;48.708;9.030;2022-07-18T00:04:29;2.80;;;1.70;;
16282;SDS011;8249;48.708;9.030;2022-07-18T00:06:56;2.13;;;1.70;;
16282;SDS011;8249;48.708;9.030;2022-07-18T00:09:23;1.93;;;1.70;;
16282;SDS011;8249;48.708;9.030;2022-07-18T00:11:51;1.83;;;1.73;;
16282;SDS011;8249;48.708;9.030;2022-07-18T00:14:21;2.53;;;1.73;;
16282;SDS011;8249;48.708;9.030;2022-07-18T00:16:48;1.90;;;1.40;;
16282;SDS011;8249;48.708;9.030;2022-07-18T00:19:17;3.13;;;1.90;;
16282;SDS011;8249;48.708;9.030;2022-07-18T00:21:44;3.80;;;1.70;;
16282;SDS011;8249;48.708;9.030;2022-07-18T00:24:11;1.47;;;1.43;;
16282;SDS011;8249;48.708;9.030;2022-07-18T00:26:38;1.60;;;1.50;;
16282;SDS011;8249;48.708;9.030;2022-07-18T00:29:05;1.77;;;1.67;;
16282;SDS011;8249;48.708;9.030;2022-07-18T00:31:34;1.63;;;1.50;;
16282;SDS011;8249;48.708;9.030;2022-07-18T00:34:01;1.67;;;1.53;;
16282;SDS011;8249;48.708;9.030;2022-07-18T00:36:28;1.90;;;1.50;;
16282;SDS011;8249;48.708;9.030;2022-07-18T00:38:56;1.60;;;1.50;;
16282;SDS011;8249;48.708;9.030;2022-07-18T00:41:23;3.20;;;1.40;;
16282;SDS011;8249;48.708;9.030;2022-07-18T00:43:51;2.10;;;1.90;;
16282;SDS011;8249;48.708;9.030;2022-07-18T00:46:20;1.60;;;1.50;;
16282;SDS011;8249;48.708;9.030;2022-07-18T00:48:49;1.90;;;1.80;;
16282;SDS011;8249;48.708;9.030;2022-07-18T00:51:17;2.63;;;1.70;;
16282;SDS011;8249;48.708;9.030;2022-07-18T00:53:45;5.60;;;1.80;;
16282;SDS011;8249;48.708;9.030;2022-07-18T00:56:13;3.03;;;1.50;;
16282;SDS011;8249;48.708;9.030;2022-07-18T00:58:42;1.50;;;1.40;;
16282;SDS011;8249;48.708;9.030;2022-07-18T01:01:10;1.60;;;1.50;;
16282;SDS011;8249;48.708;9.030;2022-07-18T01:03:56;3.00;;;1.30;;
16282;SDS011;8249;48.708;9.030;2022-07-18T01:06:23;1.97;;;1.50;;
16282;SDS011;8249;48.708;9.030;2022-07-18T01:08:50;2.57;;;1.60;;
16282;SDS011;8249;48.708;9.030;2022-07-18T01:11:17;2.23;;;1.53;;
16282;SDS011;8249;48.708;9.030;2022-07-18T01:13:46;2.10;;;1.47;;
16282;SDS011;8249;48.708;9.030;2022-07-18T01:16:14;1.60;;;1.50;;
16282;SDS011;8249;48.708;9.030;2022-07-18T01:18:43;1.93;;;1.83;;
16282;SDS011;8249;48.708;9.030;2022-07-18T01:21:12;2.67;;;1.40;;
16282;SDS011;8249;48.708;9.030;2022-07-18T01:23:40;2.23;;;1.47;;
16282;SDS011;8249;48.708;9.030;2022-07-18T01:26:07;1.90;;;1.23;;
16282;SDS011;8249;48.708;9.030;2022-07-18T01:28:34;3.23;;;1.30;;
16282;SDS011;8249;48.708;9.030;2022-07-18T01:31:03;3.33;;;1.60;;
16282;SDS011;8249;48.708;9.030;2022-07-18T01:33:30;2.63;;;1.40;;
16282;SDS011;8249;48.708;9.030;2022-07-18T01:35:58;2.20;;;1.60;;
16282;SDS011;8249;48.708;9.030;2022-07-18T01:38:27;1.63;;;1.40;;
16282;SDS011;8249;48.708;9.030;2022-07-18T01:40:54;1.40;;;1.30;;
16282;SDS011;8249;48.708;9.030;2022-07-18T01:43:21;1.77;;;1.40;;
16282;SDS011;8249;48.708;9.030;2022-07-18T01:45:49;1.57;;;1.47;;
16282;SDS011;8249;48.708;9.030;2022-07-18T01:48:16;1.30;;;1.30;;
16282;SDS011;8249;48.708;9.030;2022-07-18T01:50:44;2.27;;;1.50;;
16282;SDS011;8249;48.708;9.030;2022-07-18T01:53:11;1.70;;;1.30;;
16282;SDS011;8249;48.708;9.030;2022-07-18T01:55:40;1.33;;;1.33;;
16282;SDS011;8249;48.708;9.030;2022-07-18T01:58:07;1.43;;;1.33;;
16282;SDS011;8249;48.708;9.030;2022-07-18T02:00:34;1.73;;;1.40;;
16282;SDS011;8249;48.708;9.030;2022-07-18T02:03:01;1.77;;;1.40;;
16282;SDS011;8249;48.708;9.030;2022-07-18T02:05:28;1.20;;;1.10;;
16282;SDS011;8249;48.708;9.030;2022-07-18T02:07:55;1.40;;;1.30;;
16282;SDS011;8249;48.708;9.030;2022-07-18T02:10:22;2.60;;;1.30;;
16282;SDS011;8249;48.708;9.030;2022-07-18T02:12:51;1.23;;;1.23;;
16282;SDS011;8249;48.708;9.030;2022-07-18T02:15:18;1.93;;;1.70;;
16282;SDS011;8249;48.708;9.030;2022-07-18T02:17:45;1.53;;;1.40;;
16282;SDS011;8249;48.708;9.030;2022-07-18T02:20:12;1.43;;;1.30;;
16282;SDS011;8249;48.708;9.030;2022-07-18T02:22:40;1.50;;;1.40;;
16282;SDS011;8249;48.708;9.030;2022-07-18T02:25:08;1.90;;;1.80;;
16282;SDS011;8249;48.708;9.030;2022-07-18T02:27:36;1.50;;;1.40;;
16282;SDS011;8249;48.708;9.030;2022-07-18T02:30:05;2.03;;;1.50;;
16282;SDS011;8249;48.708;9.030;2022-07-18T02:32:34;1.33;;;1.33;;
16282;SDS011;8249;48.708;9.030;2022-07-18T02:35:02;1.80;;;1.40;;
16282;SDS011;8249;48.708;9.030;2022-07-18T02:37:31;1.57;;;1.47;;
16282;SDS011;8249;48.708;9.030;2022-07-18T02:39:58;1.43;;;1.40;;
16282;SDS011;8249;48.708;9.030;2022-07-18T02:42:25;1.30;;;1.30;;
16282;SDS011;8249;48.708;9.030;2022-07-18T02:44:52;4.00;;;1.40;;
16282;SDS011;8249;48.708;9.030;2022-07-18T02:47:21;2.40;;;1.30;;
16282;SDS011;8249;48.708;9.030;2022-07-18T02:49:48;1.47;;;1.37;;
16282;SDS011;8249;48.708;9.030;2022-07-18T02:52:15;1.80;;;1.43;;
16282;SDS011;8249;48.708;9.030;2022-07-18T02:54:42;1.50;;;1.40;;
16282;SDS011;8249;48.708;9.030;2022-07-18T02:57:09;1.37;;;1.37;;
16282;SDS011;8249;48.708;9.030;2022-07-18T02:59:36;2.17;;;1.50;;
16282;SDS011;8249;48.708;9.030;2022-07-18T03:02:03;1.80;;;1.70;;
16282;SDS011;8249;48.708;9.030;2022-07-18T03:04:32;1.93;;;1.30;;
16282;SDS011;8249;48.708;9.030;2022-07-18T03:06:59;1.87;;;1.53;;
16282;SDS011;8249;48.708;9.030;2022-07-18T03:09:26;1.40;;;1.40;;
16282;SDS011;8249;48.708;9.030;2022-07-18T03:11:53;1.60;;;1.50;;
16282;SDS011;8249;48.708;9.030;2022-07-18T03:14:21;2.23;;;1.30;;
16282;SDS011;8249;48.708;9.030;2022-07-18T03:16:48;1.60;;;1.50;;
16282;SDS011;8249;48.708;9.030;2022-07-18T03:19:15;1.80;;;1.67;;
16282;SDS011;8249;48.708;9.030;2022-07-18T03:21:43;1.77;;;1.47;;
16282;SDS011;8249;48.708;9.030;2022-07-18T03:24:10;2.60;;;1.73;;
16282;SDS011;8249;48.708;9.030;2022-07-18T03:26:39;1.80;;;1.70;;
16282;SDS011;8249;48.708;9.030;2022-07-18T03:29:06;2.93;;;1.50;;
16282;SDS011;8249;48.708;9.030;2022-07-18T03:31:33;1.87;;;1.77;;
16282;SDS011;8249;48.708;9.030;2022-07-18T03:34:00;1.50;;;1.40;;
16282;SDS011;8249;48.708;9.030;2022-07-18T03:36:27;1.73;;;1.53;;
16282;SDS011;8249;48.708;9.030;2022-07-18T03:38:55;1.90;;;1.60;;
16282;SDS011;8249;48.708;9.030;2022-07-18T03:41:22;1.93;;;1.60;;
16282;SDS011;8249;48.708;9.030;2022-07-18T03:43:49;1.67;;;1.57;;
16282;SDS011;8249;48.708;9.030;2022-07-18T03:46:16;1.73;;;1.63;;
16282;SDS011;8249;48.708;9.030;2022-07-18T03:48:43;3.23;;;1.67;;
16282;SDS011;8249;48.708;9.030;2022-07-18T03:51:10;2.70;;;1.53;;
16282;SDS011;8249;48.708;9.030;2022-07-18T03:53:37;2.03;;;1.73;;
16282;SDS011;8249;48.708;9.030;2022-07-18T03:56:06;1.60;;;1.50;;
16282;SDS011;8249;48.708;9.030;2022-07-18T03:58:33;2.00;;;1.90;;
16282;SDS011;8249;48.708;9.030;2022-07-18T04:01:01;1.53;;;1.43;;
16282;SDS011;8249;48.708;9.030;2022-07-18T04:03:28;1.70;;;1.60;;
16282;SDS011;8249;48.708;9.030;2022-07-18T04:05:55;1.60;;;1.50;;
16282;SDS011;8249;48.708;9.030;2022-07-18T04:08:22;1.47;;;1.40;;
16282;SDS011;8249;48.708;9.030;2022-07-18T04:10:50;1.87;;;1.77;;
16282;SDS011;8249;48.708;9.030;2022-07-18T04:13:19;1.73;;;1.63;;
16282;SDS011;8249;48.708;9.030;2022-07-18T04:15:46;2.17;;;1.60;;
16282;SDS011;8249;48.708;9.030;2022-07-18T04:18:13;3.83;;;1.90;;
16282;SDS011;8249;48.708;9.030;2022-07-18T04:20:40;1.77;;;1.67;;
16282;SDS011;8249;48.708;9.030;2022-07-18T04:23:07;1.57;;;1.47;;
16282;SDS011;8249;48.708;9.030;2022-07-18T04:25:36;2.37;;;1.70;;
16282;SDS011;8249;48.708;9.030;2022-07-18T04:28:04;2.07;;;1.50;;
16282;SDS011;8249;48.708;9.030;2022-07-18T04:30:34;2.07;;;1.70;;
16282;SDS011;8249;48.708;9.030;2022-07-18T04:33:02;2.17;;;1.97;;
16282;SDS011;8249;48.708;9.030;2022-07-18T04:35:30;1.53;;;1.50;;
16282;SDS011;8249;48.708;9.030;2022-07-18T04:38:01;2.80;;;1.90;;
16282;SDS011;8249;48.708;9.030;2022-07-18T04:40:28;2.47;;;1.50;;
16282;SDS011;8249;48.708;9.030;2022-07-18T04:42:55;2.03;;;1.90;;
16282;SDS011;8249;48.708;9.030;2022-07-18T04:45:22;1.83;;;1.63;;
16282;SDS011;8249;48.708;9.030;2022-07-18T04:47:51;1.77;;;1.53;;
16282;SDS011;8249;48.708;9.030;2022-07-18T04:50:20;2.30;;;1.90;;
16282;SDS011;8249;48.708;9.030;2022-07-18T04:52:48;2.03;;;1.70;;
16282;SDS011;8249;48.708;9.030;2022-07-18T04:55:16;1.70;;;1.60;;
16282;SDS011;8249;48.708;9.030;2022-07-18T04:57:45;1.90;;;1.80;;
16282;SDS011;8249;48.708;9.030;2022-07-18T05:00:14;1.90;;;1.70;;
16282;SDS011;8249;48.708;9.030;2022-07-18T05:02:42;2.10;;;1.50;;
16282;SDS011;8249;48.708;9.030;2022-07-18T05:05:12;2.53;;;1.60;;
16282;SDS011;8249;48.708;9.030;2022-07-18T05:07:41;2.00;;;1.80;;
16282;SDS011;8249;48.708;9.030;2022-07-18T05:10:10;3.70;;;1.90;;
16282;SDS011;8249;48.708;9.030;2022-07-18T05:12:38;1.77;;;1.67;;
16282;SDS011;8249;48.708;9.030;2022-07-18T05:15:08;2.10;;;1.90;;
16282;SDS011;8249;48.708;9.030;2022-07-18T05:17:36;2.63;;;1.73;;
16282;SDS011;8249;48.708;9.030;2022-07-18T05:20:04;2.40;;;2.20;;
16282;SDS011;8249;48.708;9.030;2022-07-18T05:22:35;2.10;;;1.90;;
16282;SDS011;8249;48.708;9.030;2022-07-18T05:25:03;4.30;;;1.60;;
16282;SDS011;8249;48.708;9.030;2022-07-18T05:27:31;2.87;;;1.70;;
16282;SDS011;8249;48.708;9.030;2022-07-18T05:29:59;2.03;;;1.80;;
16282;SDS011;8249;48.708;9.030;2022-07-18T05:32:26;4.00;;;2.10;;
16282;SDS011;8249;48.708;9.030;2022-07-18T05:34:54;2.13;;;1.80;;
16282;SDS011;8249;48.708;9.030;2022-07-18T05:37:21;2.37;;;1.90;;
16282;SDS011;8249;48.708;9.030;2022-07-18T05:39:50;2.10;;;2.00;;
16282;SDS011;8249;48.708;9.030;2022-07-18T05:42:17;2.37;;;2.17;;
16282;SDS011;8249;48.708;9.030;2022-07-18T05:44:44;1.83;;;1.73;;
16282;SDS011;8249;48.708;9.030;2022-07-18T05:47:11;2.27;;;2.07;;
16282;SDS011;8249;48.708;9.030;2022-07-18T05:49:38;3.43;;;2.37;;
16282;SDS011;8249;48.708;9.030;2022-07-18T05:52:06;2.93;;;2.73;;
16282;SDS011;8249;48.708;9.030;2022-07-18T05:54:33;4.87;;;3.30;;
16282;SDS011;8249;48.708;9.030;2022-07-18T05:57:02;3.53;;;2.80;;
16282;SDS011;8249;48.708;9.030;2022-07-18T05:59:29;3.10;;;2.60;;
16282;SDS011;8249;48.708;9.030;2022-07-18T06:01:56;4.97;;;2.47;;
16282;SDS011;8249;48.708;9.030;2022-07-18T06:04:23;6.70;;;2.77;;
16282;SDS011;8249;48.708;9.030;2022-07-18T06:06:50;6.40;;;3.00;;
16282;SDS011;8249;48.708;9.030;2022-07-18T06:09:17;4.20;;;3.00;;
16282;SDS011;8249;48.708;9.030;2022-07-18T06:11:44;4.87;;;2.87;;
16282;SDS011;8249;48.708;9.030;2022-07-18T06:14:13;9.80;;;3.20;;
16282;SDS011;8249;48.708;9.030;2022-07-18T06:16:40;7.80;;;2.90;;
16282;SDS011;8249;48.708;9.030;2022-07-18T06:19:07;7.17;;;2.87;;
16282;SDS011;8249;48.708;9.030;2022-07-18T06:21:34;8.90;;;3.43;;
16282;SDS011;8249;48.708;9.030;2022-07-18T06:24:02;8.50;;;3.30;;
16282;SDS011;8249;48.708;9.030;2022-07-18T06:26:29;9.23;;;3.40;;
16282;SDS011;8249;48.708;9.030;2022-07-18T06:28:56;8.80;;;3.90;;
16282;SDS011;8249;48.708;9.030;2022-07-18T06:31:25;6.87;;;2.90;;
16282;SDS011;8249;48.708;9.030;2022-07-18T06:33:52;10.17;;;2.90;;
16282;SDS011;8249;48.708;9.030;2022-07-18T06:36:19;13.87;;;3.10;;
16282;SDS011;8249;48.708;9.030;2022-07-18T06:38:49;6.67;;;2.97;;
16282;SDS011;8249;48.708;9.030;2022-07-18T06:41:16;11.53;;;3.10;;
16282;SDS011;8249;48.708;9.030;2022-07-18T06:43:44;8.37;;;3.10;;
16282;SDS011;8249;48.708;9.030;2022-07-18T06:46:11;5.93;;;2.57;;
16282;SDS011;8249;48.708;9.030;2022-07-18T06:48:40;7.40;;;2.70;;
16282;SDS011;8249;48.708;9.030;2022-07-18T06:51:07;7.17;;;2.90;;
16282;SDS011;8249;48.708;9.030;2022-07-18T06:53:34;8.77;;;3.43;;
16282;SDS011;8249;48.708;9.030;2022-07-18T06:56:01;7.73;;;2.97;;
16282;SDS011;8249;48.708;9.030;2022-07-18T06:58:30;3.63;;;2.50;;
16282;SDS011;8249;48.708;9.030;2022-07-18T07:00:58;9.90;;;2.73;;
16282;SDS011;8249;48.708;9.030;2022-07-18T07:03:26;7.17;;;3.20;;
16282;SDS011;8249;48.708;9.030;2022-07-18T07:05:54;6.30;;;2.78;;
16282;SDS011;8249;48.708;9.030;2022-07-18T07:08:21;4.18;;;2.38;;
16282;SDS011;8249;48.708;9.030;2022-07-18T07:10:48;6.65;;;2.60;;
16282;SDS011;8249;48.708;9.030;2022-07-18T07:13:15;5.55;;;2.63;;
16282;SDS011;8249;48.708;9.030;2022-07-18T07:15:42;5.13;;;2.90;;
16282;SDS011;8249;48.708;9.030;2022-07-18T07:18:10;3.42;;;2.53;;
16282;SDS011;8249;48.708;9.030;2022-07-18T07:20:37;6.28;;;2.67;;
16282;SDS011;8249;48.708;9.030;2022-07-18T07:23:05;4.90;;;2.50;;
16282;SDS011;8249;48.708;9.030;2022-07-18T07:25:34;9.60;;;2.78;;
16282;SDS011;8249;48.708;9.030;2022-07-18T07:28:03;3.70;;;2.40;;
16282;SDS011;8249;48.708;9.030;2022-07-18T07:30:31;4.40;;;2.50;;
16282;SDS011;8249;48.708;9.030;2022-07-18T07:32:58;5.72;;;2.63;;
16282;SDS011;8249;48.708;9.030;2022-07-18T07:35:26;5.65;;;2.75;;
16282;SDS011;8249;48.708;9.030;2022-07-18T07:37:54;3.90;;;2.40;;
16282;SDS011;8249;48.708;9.030;2022-07-18T07:40:24;6.25;;;2.45;;
16282;SDS011;8249;48.708;9.030;2022-07-18T07:42:55;4.35;;;2.40;;
16282;SDS011;8249;48.708;9.030;2022-07-18T07:45:31;4.03;;;1.98;;
16282;SDS011;8249;48.708;9.030;2022-07-18T07:47:58;7.35;;;2.67;;
16282;SDS011;8249;48.708;9.030;2022-07-18T07:50:25;3.92;;;2.83;;
16282;SDS011;8249;48.708;9.030;2022-07-18T07:52:53;4.03;;;2.30;;
16282;SDS011;8249;48.708;9.030;2022-07-18T07:55:20;5.80;;;2.55;;
16282;SDS011;8249;48.708;9.030;2022-07-18T07:57:48;2.53;;;2.33;;
16282;SDS011;8249;48.708;9.030;2022-07-18T08:00:15;3.40;;;2.10;;
16282;SDS011;8249;48.708;9.030;2022-07-18T08:02:52;3.05;;;2.10;;
16282;SDS011;8249;48.708;9.030;2022-07-18T08:05:21;2.65;;;2.45;;
16282;SDS011;8249;48.708;9.030;2022-07-18T08:07:48;3.50;;;2.17;;
16282;SDS011;8249;48.708;9.030;2022-07-18T08:10:15;2.83;;;2.15;;
16282;SDS011;8249;48.708;9.030;2022-07-18T08:12:42;4.00;;;2.20;;
16282;SDS011;8249;48.708;9.030;2022-07-18T08:15:11;1.95;;;1.83;;
16282;SDS011;8249;48.708;9.030;2022-07-18T08:17:38;2.17;;;1.85;;
16282;SDS011;8249;48.708;9.030;2022-07-18T08:20:05;2.00;;;1.90;;
16282;SDS011;8249;48.708;9.030;2022-07-18T08:22:34;2.25;;;2.08;;
16282;SDS011;8249;48.708;9.030;2022-07-18T08:25:01;2.13;;;1.90;;
16282;SDS011;8249;48.708;9.030;2022-07-18T08:27:28;3.05;;;2.08;;
16282;SDS011;8249;48.708;9.030;2022-07-18T08:29:55;2.55;;;2.03;;
16282;SDS011;8249;48.708;9.030;2022-07-18T08:32:24;1.95;;;1.83;;
16282;SDS011;8249;48.708;9.030;2022-07-18T08:34:51;4.72;;;1.80;;
16282;SDS011;8249;48.708;9.030;2022-07-18T08:37:19;1.80;;;1.70;;
16282;SDS011;8249;48.708;9.030;2022-07-18T08:39:46;2.08;;;1.98;;
16282;SDS011;8249;48.708;9.030;2022-07-18T08:42:14;2.85;;;1.80;;
16282;SDS011;8249;48.708;9.030;2022-07-18T08:44:43;2.38;;;1.65;;
16282;SDS011;8249;48.708;9.030;2022-07-18T08:47:11;6.10;;;1.90;;
16282;SDS011;8249;48.708;9.030;2022-07-18T08:49:41;1.83;;;1.65;;
16282;SDS011;8249;48.708;9.030;2022-07-18T08:52:09;2.05;;;1.95;;
16282;SDS011;8249;48.708;9.030;2022-07-18T08:54:36;1.90;;;1.80;;
16282;SDS011;8249;48.708;9.030;2022-07-18T08:57:03;2.08;;;1.90;;
16282;SDS011;8249;48.708;9.030;2022-07-18T08:59:30;5.38;;;1.90;;
16282;SDS011;8249;48.708;9.030;2022-07-18T09:01:57;2.00;;;1.90;;
16282;SDS011;8249;48.708;9.030;2022-07-18T09:04:34;2.03;;;1.92;;
16282;SDS011;8249;48.708;9.030;2022-07-18T09:07:03;4.13;;;1.75;;
16282;SDS011;8249;48.708;9.030;2022-07-18T09:09:31;1.98;;;1.70;;
16282;SDS011;8249;48.708;9.030;2022-07-18T09:11:59;1.95;;;1.85;;
16282;SDS011;8249;48.708;9.030;2022-07-18T09:14:31;2.00;;;1.90;;
16282;SDS011;8249;48.708;9.030;2022-07-18T09:17:02;2.00;;;1.90;;
16282;SDS011;8249;48.708;9.030;2022-07-18T09:19:30;3.10;;;1.90;;
16282;SDS011;8249;48.708;9.030;2022-07-18T09:24:49;1.80;;;1.70;;
16282;SDS011;8249;48.708;9.030;2022-07-18T09:27:25;2.65;;;1.75;;
16282;SDS011;8249;48.708;9.030;2022-07-18T09:32:52;1.90;;;1.80;;
16282;SDS011;8249;48.708;9.030;2022-07-18T09:35:23;1.90;;;1.80;;
16282;SDS011;8249;48.708;9.030;2022-07-18T09:37:57;3.67;;;2.03;;
16282;SDS011;8249;48.708;9.030;2022-07-18T09:40:28;2.35;;;1.77;;
16282;SDS011;8249;48.708;9.030;2022-07-18T09:42:57;1.77;;;1.63;;
16282;SDS011;8249;48.708;9.030;2022-07-18T09:45:27;1.98;;;1.60;;
16282;SDS011;8249;48.708;9.030;2022-07-18T09:47:57;1.75;;;1.65;;
16282;SDS011;8249;48.708;9.030;2022-07-18T09:50:26;2.10;;;1.73;;
16282;SDS011;8249;48.708;9.030;2022-07-18T09:55:43;3.03;;;2.00;;
16282;SDS011;8249;48.708;9.030;2022-07-18T09:58:14;2.58;;;1.90;;
16282;SDS011;8249;48.708;9.030;2022-07-18T10:00:42;1.88;;;1.60;;
16282;SDS011;8249;48.708;9.030;2022-07-18T10:03:09;1.77;;;1.23;;
16282;SDS011;8249;48.708;9.030;2022-07-18T10:05:37;1.40;;;1.40;;
16282;SDS011;8249;48.708;9.030;2022-07-18T10:08:07;1.55;;;1.45;;
16282;SDS011;8249;48.708;9.030;2022-07-18T10:10:37;1.30;;;1.30;;
16282;SDS011;8249;48.708;9.030;2022-07-18T10:13:07;3.35;;;1.50;;
16282;SDS011;8249;48.708;9.030;2022-07-18T10:15:36;1.40;;;1.40;;
16282;SDS011;8249;48.708;9.030;2022-07-18T10:18:06;1.50;;;1.40;;
16282;SDS011;8249;48.708;9.030;2022-07-18T10:20:35;1.50;;;1.40;;
16282;SDS011;8249;48.708;9.030;2022-07-18T10:23:12;1.95;;;1.35;;
16282;SDS011;8249;48.708;9.030;2022-07-18T10:25:44;3.03;;;1.27;;
16282;SDS011;8249;48.708;9.030;2022-07-18T10:28:29;1.40;;;1.40;;
16282;SDS011;8249;48.708;9.030;2022-07-18T10:30:57;2.53;;;1.48;;
16282;SDS011;8249;48.708;9.030;2022-07-18T10:33:40;1.65;;;1.55;;
16282;SDS011;8249;48.708;9.030;2022-07-18T10:36:11;1.80;;;1.40;;
16282;SDS011;8249;48.708;9.030;2022-07-18T10:41:31;1.50;;;1.40;;
16282;SDS011;8249;48.708;9.030;2022-07-18T10:43:58;1.63;;;1.50;;
16282;SDS011;8249;48.708;9.030;2022-07-18T10:46:26;1.50;;;1.48;;
16282;SDS011;8249;48.708;9.030;2022-07-18T10:55:26;1.40;;;1.30;;
16282;SDS011;8249;48.708;9.030;2022-07-18T11:00:46;1.73;;;1.60;;
16282;SDS011;8249;48.708;9.030;2022-07-18T11:03:16;1.60;;;1.50;;
16282;SDS011;8249;48.708;9.030;2022-07-18T11:05:53;1.27;;;1.27;;
16282;SDS011;8249;48.708;9.030;2022-07-18T11:08:24;1.40;;;1.30;;
16282;SDS011;8249;48.708;9.030;2022-07-18T11:11:03;1.65;;;1.42;;
16282;SDS011;8249;48.708;9.030;2022-07-18T11:13:41;1.58;;;1.48;;
16282;SDS011;8249;48.708;9.030;2022-07-18T11:16:15;1.60;;;1.50;;
16282;SDS011;8249;48.708;9.030;2022-07-18T11:21:55;3.95;;;1.40;;
16282;SDS011;8249;48.708;9.030;2022-07-18T11:24:24;2.35;;;1.40;;
16282;SDS011;8249;48.708;9.030;2022-07-18T11:26:52;1.63;;;1.52;;
16282;SDS011;8249;48.708;9.030;2022-07-18T11:29:19;1.50;;;1.50;;
16282;SDS011;8249;48.708;9.030;2022-07-18T11:31:47;1.63;;;1.52;;
16282;SDS011;8249;48.708;9.030;2022-07-18T11:34:16;1.58;;;1.42;;
16282;SDS011;8249;48.708;9.030;2022-07-18T11:36:44;1.50;;;1.40;;
16282;SDS011;8249;48.708;9.030;2022-07-18T11:39:13;2.05;;;1.50;;
16282;SDS011;8249;48.708;9.030;2022-07-18T11:41:42;1.40;;;1.40;;
16282;SDS011;8249;48.708;9.030;2022-07-18T11:44:16;1.50;;;1.40;;
16282;SDS011;8249;48.708;9.030;2022-07-18T11:46:45;1.45;;;1.38;;
16282;SDS011;8249;48.708;9.030;2022-07-18T11:49:12;1.23;;;1.20;;
16282;SDS011;8249;48.708;9.030;2022-07-18T11:51:40;1.70;;;1.60;;
16282;SDS011;8249;48.708;9.030;2022-07-18T11:54:08;2.05;;;1.45;;
16282;SDS011;8249;48.708;9.030;2022-07-18T11:56:45;2.78;;;1.45;;
16282;SDS011;8249;48.708;9.030;2022-07-18T11:59:14;1.48;;;1.48;;
16282;SDS011;8249;48.708;9.030;2022-07-18T12:01:41;1.67;;;1.30;;
16282;SDS011;8249;48.708;9.030;2022-07-18T12:04:14;1.38;;;1.38;;
16282;SDS011;8249;48.708;9.030;2022-07-18T12:06:44;1.65;;;1.55;;
16282;SDS011;8249;48.708;9.030;2022-07-18T12:09:12;1.70;;;1.40;;
16282;SDS011;8249;48.708;9.030;2022-07-18T12:11:54;3.05;;;1.50;;
16282;SDS011;8249;48.708;9.030;2022-07-18T12:14:22;1.20;;;1.20;;
16282;SDS011;8249;48.708;9.030;2022-07-18T12:16:56;1.42;;;1.15;;
16282;SDS011;8249;48.708;9.030;2022-07-18T12:19:32;1.50;;;1.38;;
16282;SDS011;8249;48.708;9.030;2022-07-18T12:22:04;1.83;;;1.33;;
16282;SDS011;8249;48.708;9.030;2022-07-18T12:24:33;1.40;;;1.40;;
16282;SDS011;8249;48.708;9.030;2022-07-18T12:27:13;1.75;;;1.45;;
16282;SDS011;8249;48.708;9.030;2022-07-18T12:29:55;1.40;;;1.40;;
16282;SDS011;8249;48.708;9.030;2022-07-18T12:32:27;1.38;;;1.30;;
16282;SDS011;8249;48.708;9.030;2022-07-18T12:34:56;1.58;;;1.48;;
16282;SDS011;8249;48.708;9.030;2022-07-18T12:37:23;1.45;;;1.40;;
16282;SDS011;8249;48.708;9.030;2022-07-18T12:39:55;1.67;;;1.30;;
16282;SDS011;8249;48.708;9.030;2022-07-18T12:42:28;4.70;;;1.50;;
16282;SDS011;8249;48.708;9.030;2022-07-18T12:44:57;1.20;;;1.20;;
16282;SDS011;8249;48.708;9.030;2022-07-18T12:47:24;2.70;;;1.50;;
16282;SDS011;8249;48.708;9.030;2022-07-18T12:49:52;1.88;;;1.45;;
16282;SDS011;8249;48.708;9.030;2022-07-18T12:52:19;1.50;;;1.40;;
16282;SDS011;8249;48.708;9.030;2022-07-18T12:54:46;2.03;;;1.45;;
16282;SDS011;8249;48.708;9.030;2022-07-18T12:57:14;1.95;;;1.75;;
16282;SDS011;8249;48.708;9.030;2022-07-18T12:59:43;1.58;;;1.40;;
16282;SDS011;8249;48.708;9.030;2022-07-18T13:02:10;1.38;;;1.38;;
16282;SDS011;8249;48.708;9.030;2022-07-18T13:04:38;1.75;;;1.30;;
16282;SDS011;8249;48.708;9.030;2022-07-18T13:07:05;1.80;;;1.70;;
16282;SDS011;8249;48.708;9.030;2022-07-18T13:09:32;2.35;;;1.30;;
16282;SDS011;8249;48.708;9.030;2022-07-18T13:11:59;1.67;;;1.55;;
16282;SDS011;8249;48.708;9.030;2022-07-18T13:14:27;1.92;;;1.58;;
16282;SDS011;8249;48.708;9.030;2022-07-18T13:16:55;2.03;;;1.75;;
16282;SDS011;8249;48.708;9.030;2022-07-18T13:19:23;1.70;;;1.58;;
16282;SDS011;8249;48.708;9.030;2022-07-18T13:21:50;1.58;;;1.45;;
16282;SDS011;8249;48.708;9.030;2022-07-18T13:24:17;1.65;;;1.55;;
16282;SDS011;8249;48.708;9.030;2022-07-18T13:26:44;1.52;;;1.42;;
16282;SDS011;8249;48.708;9.030;2022-07-18T13:29:11;1.58;;;1.48;;
16282;SDS011;8249;48.708;9.030;2022-07-18T13:31:38;1.67;;;1.58;;
16282;SDS011;8249;48.708;9.030;2022-07-18T13:34:06;1.85;;;1.65;;
16282;SDS011;8249;48.708;9.030;2022-07-18T13:36:33;1.67;;;1.58;;
16282;SDS011;8249;48.708;9.030;2022-07-18T13:39:00;1.65;;;1.55;;
16282;SDS011;8249;48.708;9.030;2022-07-18T13:41:28;1.60;;;1.50;;
16282;SDS011;8249;48.708;9.030;2022-07-18T13:43:56;5.00;;;1.85;;
16282;SDS011;8249;48.708;9.030;2022-07-18T13:46:23;1.50;;;1.40;;
16282;SDS011;8249;48.708;9.030;2022-07-18T13:48:50;1.67;;;1.60;;
16282;SDS011;8249;48.708;9.030;2022-07-18T13:51:18;1.50;;;1.40;;
16282;SDS011;8249;48.708;9.030;2022-07-18T13:53:46;1.60;;;1.50;;
16282;SDS011;8249;48.708;9.030;2022-07-18T13:56:13;1.95;;;1.48;;
16282;SDS011;8249;48.708;9.030;2022-07-18T13:58:40;1.65;;;1.55;;
16282;SDS011;8249;48.708;9.030;2022-07-18T14:01:07;1.30;;;1.30;;
16282;SDS011;8249;48.708;9.030;2022-07-18T14:03:34;1.67;;;1.58;;
16282;SDS011;8249;48.708;9.030;2022-07-18T14:06:01;2.70;;;1.80;;
16282;SDS011;8249;48.708;9.030;2022-07-18T14:08:30;1.77;;;1.58;;
16282;SDS011;8249;48.708;9.030;2022-07-18T14:10:57;1.73;;;1.63;;
16282;SDS011;8249;48.708;9.030;2022-07-18T14:13:24;1.75;;;1.60;;
16282;SDS011;8249;48.708;9.030;2022-07-18T14:15:51;2.20;;;1.67;;
16282;SDS011;8249;48.708;9.030;2022-07-18T14:18:18;1.92;;;1.75;;
16282;SDS011;8249;48.708;9.030;2022-07-18T14:20:45;1.70;;;1.60;;
16282;SDS011;8249;48.708;9.030;2022-07-18T14:23:12;4.30;;;1.60;;
16282;SDS011;8249;48.708;9.030;2022-07-18T14:25:40;2.50;;;1.63;;
16282;SDS011;8249;48.708;9.030;2022-07-18T14:28:07;1.60;;;1.50;;
16282;SDS011;8249;48.708;9.030;2022-07-18T14:30:35;2.03;;;1.83;;
16282;SDS011;8249;48.708;9.030;2022-07-18T14:33:02;3.65;;;2.08;;
16282;SDS011;8249;48.708;9.030;2022-07-18T14:35:29;1.73;;;1.60;;
16282;SDS011;8249;48.708;9.030;2022-07-18T14:37:56;3.60;;;1.70;;
16282;SDS011;8249;48.708;9.030;2022-07-18T14:40:23;1.80;;;1.70;;
16282;SDS011;8249;48.708;9.030;2022-07-18T14:42:52;1.60;;;1.50;;
16282;SDS011;8249;48.708;9.030;2022-07-18T14:45:19;2.28;;;1.65;;
16282;SDS011;8249;48.708;9.030;2022-07-18T14:47:46;1.70;;;1.60;;
16282;SDS011;8249;48.708;9.030;2022-07-18T14:50:13;3.13;;;1.70;;
16282;SDS011;8249;48.708;9.030;2022-07-18T14:52:40;3.20;;;1.90;;
16282;SDS011;8249;48.708;9.030;2022-07-18T14:55:08;2.45;;;2.20;;
16282;SDS011;8249;48.708;9.030;2022-07-18T14:57:36;1.80;;;1.70;;
16282;SDS011;8249;48.708;9.030;2022-07-18T15:00:05;3.17;;;2.97;;
16282;SDS011;8249;48.708;9.030;2022-07-18T15:02:34;2.90;;;1.90;;
16282;SDS011;8249;48.708;9.030;2022-07-18T15:05:01;3.85;;;1.95;;
16282;SDS011;8249;48.708;9.030;2022-07-18T15:07:28;4.38;;;1.63;;
16282;SDS011;8249;48.708;9.030;2022-07-18T15:09:55;2.10;;;1.80;;
16282;SDS011;8249;48.708;9.030;2022-07-18T15:12:22;3.75;;;3.30;;
16282;SDS011;8249;48.708;9.030;2022-07-18T15:14:50;3.35;;;1.80;;
16282;SDS011;8249;48.708;9.030;2022-07-18T15:17:21;3.20;;;1.88;;
16282;SDS011;8249;48.708;9.030;2022-07-18T15:19:48;2.00;;;1.90;;
16282;SDS011;8249;48.708;9.030;2022-07-18T15:22:16;2.03;;;1.70;;
16282;SDS011;8249;48.708;9.030;2022-07-18T15:24:43;1.80;;;1.70;;
16282;SDS011;8249;48.708;9.030;2022-07-18T15:27:10;2.85;;;1.83;;
16282;SDS011;8249;48.708;9.030;2022-07-18T15:29:38;1.92;;;1.83;;
16282;SDS011;8249;48.708;9.030;2022-07-18T15:32:05;2.17;;;1.90;;